Time;durP1;ratioP1;P1;durP2;ratioP2;P2;SDS_P1;SDS_P2;PMS_P1;PMS_P2;Temp;Humidity;BMP_temperature;BMP_pressure;BME280_temperature;BME280_humidity;BME280_pressure;Samples;Min_cycle;Max_cycle;Signal;HPM_P1;HPM_P2
2021/10/25 00:01:57;;;;;;;1.35;0.60;;;16.10;96.70;;;;;;5103907;27;20122;-74
2021/10/25 00:04:26;;;;;;;2.00;0.63;;;16.10;96.70;;;;;;5101487;27;20480;-73
2021/10/25 00:06:54;;;;;;;2.35;0.60;;;16.00;96.70;;;;;;5103661;27;20047;-73
2021/10/25 00:09:24;;;;;;;1.80;0.63;;;15.90;96.70;;;;;;5075323;28;20044;-73
2021/10/25 00:11:52;;;;;;;2.05;0.60;;;15.90;96.70;;;;;;5103381;27;20100;-73
2021/10/25 00:14:21;;;;;;;1.73;0.73;;;15.80;96.70;;;;;;5085784;28;20047;-73
2021/10/25 00:16:49;;;;;;;1.55;0.57;;;15.80;96.70;;;;;;5101790;28;20035;-73
2021/10/25 00:19:18;;;;;;;2.10;0.60;;;15.90;96.70;;;;;;5084200;28;20600;-73
2021/10/25 00:21:46;;;;;;;2.25;0.60;;;15.90;96.70;;;;;;5106881;27;20081;-74
2021/10/25 00:24:15;;;;;;;1.58;0.77;;;15.90;96.70;;;;;;5104321;28;20104;-74
2021/10/25 00:26:44;;;;;;;1.13;0.60;;;15.90;96.70;;;;;;5099273;28;20127;-73
2021/10/25 00:29:13;;;;;;;1.58;0.60;;;15.90;96.70;;;;;;5100673;28;20043;-74
2021/10/25 00:31:41;;;;;;;1.48;0.57;;;15.90;96.70;;;;;;5103298;28;20104;-74
2021/10/25 00:34:11;;;;;;;1.60;0.60;;;15.90;96.70;;;;;;5096730;28;20039;-73
2021/10/25 00:36:40;;;;;;;2.65;0.80;;;15.90;96.70;;;;;;5101377;28;20039;-73
2021/10/25 00:39:09;;;;;;;3.15;0.60;;;16.10;96.70;;;;;;5082549;28;20142;-74
2021/10/25 00:41:37;;;;;;;0.68;0.57;;;16.10;96.70;;;;;;5102114;28;20050;-74
2021/10/25 00:44:07;;;;;;;2.08;0.50;;;16.00;96.70;;;;;;5084370;28;20093;-73
2021/10/25 00:46:36;;;;;;;2.42;0.70;;;16.00;96.70;;;;;;5088710;28;20152;-74
2021/10/25 00:49:04;;;;;;;0.98;0.35;;;15.90;96.70;;;;;;5102876;27;20035;-73
2021/10/25 00:51:32;;;;;;;1.08;0.40;;;15.90;96.70;;;;;;5104693;27;20055;-73
2021/10/25 00:54:00;;;;;;;0.70;0.40;;;15.90;96.70;;;;;;5110501;27;20401;-73
2021/10/25 00:56:31;;;;;;;1.58;0.65;;;15.90;96.70;;;;;;5109343;27;21291;-73
2021/10/25 00:58:59;;;;;;;3.13;0.52;;;15.90;96.70;;;;;;5105189;27;20142;-73
2021/10/25 01:01:29;;;;;;;2.63;0.70;;;15.90;96.70;;;;;;5086784;27;20409;-73
2021/10/25 01:03:57;;;;;;;1.65;0.52;;;15.90;96.70;;;;;;5105718;27;20039;-73
2021/10/25 01:06:25;;;;;;;7.03;1.75;;;15.90;96.70;;;;;;5108481;27;20044;-73
2021/10/25 01:08:54;;;;;;;2.05;0.68;;;15.80;96.70;;;;;;5103675;27;20043;-73
2021/10/25 01:11:23;;;;;;;1.30;0.47;;;15.90;96.70;;;;;;5091223;27;20527;-73
2021/10/25 01:13:51;;;;;;;1.73;0.45;;;15.90;96.70;;;;;;5088814;28;20094;-73
2021/10/25 01:16:20;;;;;;;1.10;0.52;;;15.70;96.70;;;;;;5088656;27;20062;-73
2021/10/25 01:18:49;;;;;;;0.90;0.40;;;15.80;96.70;;;;;;5107448;27;20050;-73
2021/10/25 01:21:19;;;;;;;1.27;0.30;;;15.80;96.70;;;;;;5108408;27;20043;-74
2021/10/25 01:23:48;;;;;;;1.40;0.47;;;15.70;96.70;;;;;;5103935;27;20124;-73
2021/10/25 01:26:16;;;;;;;1.60;0.50;;;15.60;96.70;;;;;;5109783;27;20191;-73
2021/10/25 01:28:44;;;;;;;2.67;0.80;;;15.40;96.70;;;;;;5108177;27;20036;-73
2021/10/25 01:31:13;;;;;;;1.20;0.43;;;15.40;96.70;;;;;;5106016;27;20047;-73
2021/10/25 01:33:44;;;;;;;2.38;0.50;;;15.50;96.70;;;;;;5119974;27;20039;-74
2021/10/25 01:36:15;;;;;;;1.33;0.50;;;15.40;96.70;;;;;;5106234;27;20140;-73
2021/10/25 01:38:45;;;;;;;1.20;0.60;;;15.30;96.70;;;;;;5091194;27;20071;-73
2021/10/25 01:41:15;;;;;;;1.02;0.43;;;15.10;96.70;;;;;;5100108;27;20097;-73
2021/10/25 01:43:44;;;;;;;4.90;0.82;;;15.10;96.70;;;;;;5102939;27;20134;-73
2021/10/25 01:46:12;;;;;;;2.78;0.60;;;15.00;96.70;;;;;;5110021;27;20050;-74
2021/10/25 01:48:40;;;;;;;1.20;0.40;;;15.00;96.70;;;;;;5107568;27;20035;-74
2021/10/25 01:51:09;;;;;;;0.50;0.40;;;15.00;96.70;;;;;;5087012;27;20079;-73
2021/10/25 01:53:37;;;;;;;1.13;0.50;;;15.10;96.70;;;;;;5104159;27;20443;-73
2021/10/25 01:56:09;;;;;;;2.10;0.40;;;15.10;96.70;;;;;;5103485;27;20063;-73
2021/10/25 01:58:39;;;;;;;2.90;0.98;;;15.20;96.70;;;;;;5105666;27;20051;-73
2021/10/25 02:01:08;;;;;;;1.92;0.30;;;15.00;96.70;;;;;;5111099;27;20048;-74
2021/10/25 02:03:37;;;;;;;1.40;0.55;;;15.00;96.70;;;;;;5088705;27;20039;-77
2021/10/25 02:06:17;;;;;;;2.25;0.50;;;15.00;96.70;;;;;;5103516;27;20040;-77
2021/10/25 02:08:47;;;;;;;1.85;0.50;;;15.00;96.70;;;;;;5101988;27;20054;-77
2021/10/25 02:11:20;;;;;;;2.30;0.40;;;15.10;96.70;;;;;;5086850;28;20127;-77
2021/10/25 02:13:57;;;;;;;1.17;0.50;;;15.00;96.70;;;;;;5103619;27;20044;-77
2021/10/25 02:16:27;;;;;;;0.95;0.50;;;15.00;96.70;;;;;;5084475;27;20130;-77
2021/10/25 02:18:56;;;;;;;1.10;0.47;;;15.00;96.70;;;;;;5105514;27;20499;-77
2021/10/25 02:21:37;;;;;;;0.73;0.40;;;15.10;96.70;;;;;;5108555;27;20085;-77
2021/10/25 02:24:05;;;;;;;1.80;0.60;;;15.10;96.70;;;;;;5108375;27;20052;-74
2021/10/25 02:26:41;;;;;;;2.72;0.40;;;15.10;96.70;;;;;;5103445;27;20067;-74
2021/10/25 02:29:10;;;;;;;1.20;0.57;;;15.10;96.70;;;;;;5101839;27;20079;-74
2021/10/25 02:31:39;;;;;;;1.85;0.50;;;15.20;96.70;;;;;;5103841;27;20054;-74
2021/10/25 02:34:07;;;;;;;1.45;0.52;;;15.10;96.70;;;;;;5090409;27;20075;-73
2021/10/25 02:36:35;;;;;;;1.63;0.52;;;15.10;96.70;;;;;;5108204;27;20066;-75
2021/10/25 02:39:13;;;;;;;1.80;0.50;;;15.10;96.70;;;;;;5086212;28;20054;-74
2021/10/25 02:41:45;;;;;;;1.20;0.60;;;15.00;96.70;;;;;;5099060;27;20489;-74
2021/10/25 02:44:18;;;;;;;2.60;0.47;;;15.00;96.70;;;;;;5084586;28;20060;-75
2021/10/25 02:46:46;;;;;;;1.83;0.68;;;14.90;96.70;;;;;;5088913;27;20044;-74
2021/10/25 02:49:15;;;;;;;1.95;0.50;;;14.90;96.70;;;;;;5102187;27;20742;-74
2021/10/25 02:51:43;;;;;;;0.90;0.47;;;14.90;96.70;;;;;;5103971;27;20044;-74
2021/10/25 02:54:12;;;;;;;1.10;0.40;;;14.90;96.70;;;;;;5106105;27;20043;-75
2021/10/25 02:56:52;;;;;;;0.93;0.40;;;15.00;96.70;;;;;;5104496;27;20066;-74
2021/10/25 02:59:26;;;;;;;0.93;0.40;;;15.00;96.70;;;;;;5104657;27;20043;-74
2021/10/25 03:01:54;;;;;;;1.65;0.70;;;15.00;96.70;;;;;;5104961;27;20040;-74
2021/10/25 03:04:26;;;;;;;1.35;0.47;;;15.00;96.70;;;;;;5102876;27;20408;-74
2021/10/25 03:06:54;;;;;;;1.50;0.43;;;15.00;96.70;;;;;;5087348;27;20071;-75
2021/10/25 03:09:22;;;;;;;1.40;0.70;;;14.90;96.70;;;;;;5103100;27;20134;-74
2021/10/25 03:11:52;;;;;;;3.47;0.65;;;14.80;96.70;;;;;;5110117;27;20122;-74
2021/10/25 03:14:20;;;;;;;1.42;0.55;;;14.90;96.70;;;;;;5099215;27;20036;-74
2021/10/25 03:16:56;;;;;;;1.63;0.52;;;15.00;96.70;;;;;;5098948;27;20213;-74
2021/10/25 03:19:25;;;;;;;1.25;0.50;;;14.90;96.70;;;;;;5105597;27;20101;-75
2021/10/25 03:21:54;;;;;;;1.85;0.40;;;14.90;96.70;;;;;;5102910;27;20054;-74
2021/10/25 03:24:23;;;;;;;1.70;0.50;;;14.80;96.70;;;;;;5119738;27;20135;-74
2021/10/25 03:26:52;;;;;;;1.30;0.45;;;14.80;96.70;;;;;;5088489;27;20052;-74
2021/10/25 03:29:21;;;;;;;1.95;0.45;;;14.80;96.70;;;;;;5105388;27;20515;-75
2021/10/25 03:31:51;;;;;;;2.70;0.43;;;14.80;96.70;;;;;;5103735;27;20047;-74
2021/10/25 03:34:19;;;;;;;3.25;0.52;;;14.70;96.70;;;;;;5099547;27;20134;-74
2021/10/25 03:36:49;;;;;;;1.17;0.55;;;14.80;96.70;;;;;;5086046;27;20084;-74
2021/10/25 03:39:23;;;;;;;0.77;0.40;;;14.70;96.70;;;;;;5104119;27;20050;-74
2021/10/25 03:41:55;;;;;;;1.63;0.50;;;14.70;96.70;;;;;;5088470;27;20035;-74
2021/10/25 03:44:27;;;;;;;1.52;0.57;;;14.70;96.70;;;;;;5105227;27;20048;-74
2021/10/25 03:47:06;;;;;;;4.43;0.88;;;14.60;96.70;;;;;;5098644;27;20043;-74
2021/10/25 03:52:53;;;;;;;1.48;0.50;;;14.70;96.70;;;;;;5057208;28;20037;-74
2021/10/25 03:55:33;;;;;;;2.55;0.50;;;14.70;96.70;;;;;;5054022;28;20044;-74
2021/10/25 04:28:24;;;;;;;1.33;0.70;;;14.50;96.70;;;;;;5103153;27;20071;-77
2021/10/25 04:30:58;;;;;;;2.38;0.40;;;14.40;96.70;;;;;;5088903;28;20511;-77
2021/10/25 04:33:33;;;;;;;1.00;0.40;;;14.30;96.70;;;;;;5089631;28;20415;-77
2021/10/25 04:36:25;;;;;;;1.95;0.40;;;14.30;96.70;;;;;;5084298;28;20039;-77
2021/10/25 04:39:08;;;;;;;1.90;0.50;;;14.30;96.70;;;;;;5108211;28;20112;-77
2021/10/25 04:41:38;;;;;;;0.80;0.40;;;14.40;96.70;;;;;;5096052;28;20051;-77
2021/10/25 04:44:06;;;;;;;1.55;0.68;;;14.50;96.70;;;;;;5100779;28;20040;-77
2021/10/25 04:46:36;;;;;;;1.95;0.50;;;14.50;96.70;;;;;;5101234;28;20040;-77
2021/10/25 04:49:05;;;;;;;1.88;0.50;;;14.40;96.70;;;;;;5104915;27;20120;-77
2021/10/25 04:51:47;;;;;;;2.13;0.40;;;14.40;96.70;;;;;;5084316;28;20050;-77
2021/10/25 04:54:22;;;;;;;1.95;0.63;;;14.40;96.70;;;;;;5100382;28;20031;-77
2021/10/25 04:56:52;;;;;;;1.38;0.63;;;14.50;96.70;;;;;;5100292;28;20116;-77
2021/10/25 04:59:20;;;;;;;2.65;0.47;;;14.50;96.70;;;;;;5108849;27;20043;-77
2021/10/25 05:01:50;;;;;;;1.23;0.57;;;14.50;96.70;;;;;;5103788;28;20039;-77
2021/10/25 05:04:18;;;;;;;6.15;1.13;;;14.40;96.70;;;;;;5118246;27;20047;-77
2021/10/25 05:06:47;;;;;;;1.77;0.45;;;14.50;96.70;;;;;;5102214;28;20051;-77
2021/10/25 05:09:15;;;;;;;3.38;0.68;;;14.40;96.70;;;;;;5100150;28;20546;-77
2021/10/25 05:11:43;;;;;;;3.05;0.70;;;14.40;96.70;;;;;;5104786;28;20051;-77
2021/10/25 05:14:12;;;;;;;2.00;0.50;;;14.40;96.70;;;;;;5103278;28;20047;-77
2021/10/25 05:16:41;;;;;;;1.80;0.85;;;14.30;96.70;;;;;;5098955;28;20142;-78
2021/10/25 05:19:11;;;;;;;1.92;0.60;;;14.30;96.70;;;;;;5080586;28;20050;-77
2021/10/25 05:21:45;;;;;;;2.30;0.90;;;14.30;96.70;;;;;;5107002;28;20035;-77
2021/10/25 05:24:14;;;;;;;4.60;0.82;;;14.30;96.70;;;;;;5079639;28;20242;-77
2021/10/25 05:26:42;;;;;;;4.25;0.70;;;14.20;96.70;;;;;;5106701;28;20050;-77
2021/10/25 05:29:10;;;;;;;2.58;0.52;;;14.20;96.70;;;;;;5082798;28;20071;-77
2021/10/25 05:31:39;;;;;;;2.30;0.60;;;14.10;96.70;;;;;;5109288;27;20047;-77
2021/10/25 05:34:09;;;;;;;2.67;0.50;;;14.10;96.70;;;;;;5126192;27;20043;-77
2021/10/25 05:36:41;;;;;;;4.95;0.70;;;14.10;96.70;;;;;;5108037;27;20086;-77
2021/10/25 05:39:10;;;;;;;1.35;0.65;;;14.00;96.70;;;;;;5102876;27;20143;-77
2021/10/25 05:41:40;;;;;;;2.17;0.60;;;13.90;96.70;;;;;;5110535;27;20043;-78
2021/10/25 05:44:08;;;;;;;3.25;0.60;;;14.00;96.70;;;;;;5105478;27;20044;-78
2021/10/25 05:46:37;;;;;;;4.53;0.70;;;14.10;96.70;;;;;;5102506;27;20046;-77
2021/10/25 05:49:06;;;;;;;1.30;0.60;;;14.10;96.70;;;;;;5102396;27;20064;-77
2021/10/25 05:51:35;;;;;;;3.92;1.25;;;14.10;96.70;;;;;;5109730;27;20043;-77
2021/10/25 05:54:05;;;;;;;2.83;0.60;;;14.10;96.70;;;;;;5105932;27;20044;-77
2021/10/25 05:56:34;;;;;;;1.98;0.70;;;14.00;96.70;;;;;;5099137;27;20044;-77
2021/10/25 05:59:04;;;;;;;2.97;0.65;;;14.10;96.70;;;;;;5102335;27;20035;-78
2021/10/25 06:01:44;;;;;;;2.28;0.82;;;14.00;96.70;;;;;;5102425;27;20513;-77
2021/10/25 06:04:25;;;;;;;1.58;0.70;;;14.10;96.70;;;;;;5102028;27;20051;-77
2021/10/25 06:07:13;;;;;;;3.42;0.90;;;14.10;96.70;;;;;;5098306;27;20039;-77
2021/10/25 06:09:45;;;;;;;4.82;0.98;;;14.20;96.70;;;;;;5097256;27;20047;-78
2021/10/25 06:12:17;;;;;;;2.40;0.80;;;14.20;96.70;;;;;;5105097;27;20093;-77
2021/10/25 06:15:15;;;;;;;3.85;0.70;;;14.20;96.70;;;;;;5097803;27;20055;-77
2021/10/25 06:20:22;;;;;;;4.03;0.95;;;14.10;96.70;;;;;;5105780;27;20043;-77
2021/10/25 06:22:51;;;;;;;1.20;0.40;;;14.00;96.70;;;;;;5083729;28;20040;-77
2021/10/25 06:25:23;;;;;;;5.10;1.15;;;13.90;96.70;;;;;;5106120;27;20108;-77
2021/10/25 06:28:02;;;;;;;2.95;0.85;;;13.90;96.70;;;;;;5093073;27;20058;-77
2021/10/25 06:30:33;;;;;;;7.03;1.15;;;14.00;96.70;;;;;;5105509;27;20039;-77
2021/10/25 06:33:03;;;;;;;3.72;1.05;;;14.10;96.70;;;;;;5106120;27;20097;-77
2021/10/25 06:36:05;;;;;;;3.83;0.90;;;14.20;96.70;;;;;;5101595;27;20405;-77
2021/10/25 06:41:23;;;;;;;4.28;1.50;;;14.40;96.70;;;;;;5104830;27;20056;-77
2021/10/25 06:43:56;;;;;;;5.38;1.60;;;14.50;96.70;;;;;;5089693;28;20089;-77
2021/10/25 06:46:26;;;;;;;4.18;1.83;;;14.60;96.70;;;;;;5086363;27;20424;-77
2021/10/25 06:48:58;;;;;;;3.70;1.52;;;14.50;96.70;;;;;;5090531;27;20040;-78
2021/10/25 06:51:28;;;;;;;8.73;1.48;;;14.50;96.70;;;;;;5090223;28;20134;-77
2021/10/25 06:53:56;;;;;;;4.13;1.23;;;14.50;96.70;;;;;;5107314;27;20035;-77
2021/10/25 06:56:29;;;;;;;3.50;1.40;;;14.50;96.70;;;;;;5105121;27;20128;-77
2021/10/25 06:58:58;;;;;;;7.07;1.70;;;14.60;96.70;;;;;;5085514;27;20571;-77
2021/10/25 07:01:28;;;;;;;6.15;1.20;;;14.80;96.70;;;;;;5106776;27;20139;-77
2021/10/25 07:03:58;;;;;;;6.63;1.63;;;14.90;96.70;;;;;;5084328;28;20134;-77
2021/10/25 07:06:34;;;;;;;6.07;1.30;;;15.00;96.70;;;;;;5102036;27;20089;-77
2021/10/25 07:09:04;;;;;;;6.30;1.95;;;15.00;96.70;;;;;;5101078;27;20146;-77
2021/10/25 07:11:34;;;;;;;5.82;3.35;;;15.10;96.70;;;;;;5102784;27;20046;-77
2021/10/25 07:14:07;;;;;;;5.35;2.50;;;15.10;96.70;;;;;;5101933;27;20055;-77
2021/10/25 07:16:40;;;;;;;6.00;1.92;;;15.00;96.70;;;;;;5103929;27;20048;-77
2021/10/25 08:04:48;;;;;;;8.38;3.25;;;15.20;96.70;;;;;;5099647;27;20044;-77
2021/10/25 08:07:45;;;;;;;14.07;3.72;;;15.20;96.70;;;;;;5085413;28;20130;-81
2021/10/25 08:10:56;;;;;;;12.95;3.55;;;15.20;96.70;;;;;;5098930;27;20128;-81
2021/10/25 08:13:29;;;;;;;14.27;4.32;;;15.30;96.70;;;;;;5100057;27;20048;-80
2021/10/25 08:16:08;;;;;;;9.32;3.85;;;15.40;96.70;;;;;;5104784;27;20092;-83
2021/10/25 08:21:14;;;;;;;11.40;4.15;;;15.50;96.70;;;;;;5106575;28;20039;-84
2021/10/25 08:23:43;;;;;;;17.92;4.65;;;15.60;96.70;;;;;;5107599;27;20382;-79
2021/10/25 08:26:30;;;;;;;11.50;4.10;;;15.60;96.70;;;;;;5103004;28;20054;-78
2021/10/25 08:29:03;;;;;;;10.48;4.40;;;15.70;96.70;;;;;;5101757;28;20067;-86
2021/10/25 08:31:35;;;;;;;11.07;3.85;;;15.80;96.70;;;;;;5085834;28;20040;-85
2021/10/25 08:39:59;;;;;;;6.25;2.95;;;15.90;96.70;;;;;;5109107;27;20043;-85
2021/10/25 08:42:34;;;;;;;7.50;2.95;;;15.90;96.70;;;;;;5089346;28;20043;-84
2021/10/25 08:45:12;;;;;;;7.53;2.83;;;15.90;96.70;;;;;;5091525;28;20059;-86
2021/10/25 08:47:49;;;;;;;12.00;2.92;;;15.90;96.70;;;;;;5102422;28;20500;-86
2021/10/25 08:50:22;;;;;;;6.18;2.47;;;15.90;96.70;;;;;;5097250;28;20043;-85
2021/10/25 08:52:51;;;;;;;9.23;2.80;;;15.90;96.70;;;;;;5088756;27;20035;-85
2021/10/25 08:55:30;;;;;;;6.78;2.72;;;16.00;96.70;;;;;;5094355;28;20150;-85
2021/10/25 08:57:58;;;;;;;12.60;2.13;;;16.10;96.70;;;;;;5080219;28;20062;-84
2021/10/25 09:00:38;;;;;;;10.57;2.30;;;16.10;96.70;;;;;;5103478;28;20089;-82
2021/10/25 09:03:20;;;;;;;7.55;2.40;;;16.10;96.70;;;;;;5091146;28;20170;-78
2021/10/25 09:05:54;;;;;;;10.20;3.20;;;16.20;96.70;;;;;;5109105;27;20307;-85
2021/10/25 09:08:23;;;;;;;9.55;3.65;;;16.30;96.70;;;;;;5106887;27;20052;-84
2021/10/25 09:10:51;;;;;;;9.68;3.78;;;16.30;96.70;;;;;;5091230;27;20134;-84
2021/10/25 09:13:25;;;;;;;9.45;3.13;;;16.30;96.70;;;;;;5081611;27;20032;-85
2021/10/25 09:15:55;;;;;;;8.27;3.50;;;16.30;96.70;;;;;;5105362;27;20051;-84
2021/10/25 09:18:43;;;;;;;9.50;3.25;;;16.40;96.70;;;;;;5082787;27;20043;-83
2021/10/25 09:21:17;;;;;;;7.80;3.67;;;16.50;96.70;;;;;;5112651;27;20615;-84
2021/10/25 09:23:51;;;;;;;12.32;4.10;;;16.60;96.70;;;;;;5107625;27;20146;-83
2021/10/25 09:26:21;;;;;;;11.60;3.97;;;16.80;96.70;;;;;;5107646;27;20055;-84
2021/10/25 09:28:53;;;;;;;8.10;3.00;;;16.90;96.70;;;;;;5091476;27;20047;-83
2021/10/25 09:31:29;;;;;;;8.65;3.05;;;17.00;96.70;;;;;;5091746;28;20121;-83
2021/10/25 09:34:04;;;;;;;5.32;2.15;;;17.10;96.70;;;;;;5104202;27;20050;-85
2021/10/25 09:36:58;;;;;;;4.55;2.22;;;17.30;96.70;;;;;;5130679;27;20067;-84
2021/10/25 09:39:46;;;;;;;4.10;2.07;;;17.50;96.70;;;;;;5110349;27;20666;-82
2021/10/25 09:45:33;;;;;;;5.80;1.80;;;17.70;96.70;;;;;;5103879;27;20044;-83
2021/10/25 09:51:21;;;;;;;3.60;1.40;;;18.20;95.20;;;;;;5107670;27;20140;-85
2021/10/25 09:54:10;;;;;;;;;;;18.30;93.90;;;;;;5122746;27;20143;-85
2021/10/25 09:56:52;;;;;;;2.47;1.10;;;18.40;93.10;;;;;;5108348;27;20018;-84
2021/10/25 09:59:52;;;;;;;2.42;1.00;;;18.40;92.90;;;;;;5090794;27;20055;-84
2021/10/25 10:02:30;;;;;;;2.60;1.30;;;18.40;92.00;;;;;;5089809;27;20050;-85
2021/10/25 10:05:04;;;;;;;3.80;1.17;;;18.50;93.70;;;;;;5095609;27;20043;-84
2021/10/25 10:07:35;;;;;;;4.28;1.17;;;18.50;92.90;;;;;;5081555;27;20447;-85
2021/10/25 10:10:25;;;;;;;3.35;1.25;;;18.50;92.60;;;;;;5106778;27;20059;-84
2021/10/25 10:13:02;;;;;;;2.47;0.95;;;18.50;92.00;;;;;;5093232;27;20092;-83
2021/10/25 10:15:35;;;;;;;2.13;1.02;;;18.60;91.30;;;;;;5105029;27;20482;-84
2021/10/25 10:18:10;;;;;;;3.88;1.00;;;18.70;92.40;;;;;;5105852;27;20080;-84
2021/10/25 10:21:14;;;;;;;2.70;0.90;;;18.70;91.70;;;;;;5037440;28;20037;-84
2021/10/25 10:23:52;;;;;;;2.67;0.95;;;18.80;91.40;;;;;;5078591;28;20051;-85
2021/10/25 10:26:22;;;;;;;2.03;0.88;;;18.90;91.10;;;;;;5108744;27;20040;-85
2021/10/25 10:28:53;;;;;;;1.25;0.70;;;19.00;90.30;;;;;;5108451;27;20080;-84
2021/10/25 10:31:29;;;;;;;2.05;0.75;;;19.10;89.70;;;;;;5103602;27;20051;-85
2021/10/25 10:34:15;;;;;;;1.05;0.63;;;19.20;88.90;;;;;;5106582;27;20051;-85
2021/10/25 10:36:51;;;;;;;1.45;0.68;;;19.20;88.40;;;;;;5088219;28;20035;-85
2021/10/25 10:39:25;;;;;;;2.08;0.77;;;19.30;88.50;;;;;;5088974;27;20063;-84
2021/10/25 10:42:23;;;;;;;4.40;0.90;;;19.20;88.50;;;;;;5105795;27;20050;-85
2021/10/25 10:45:03;;;;;;;2.65;0.85;;;19.30;88.10;;;;;;5107114;27;20056;-85
2021/10/25 10:47:39;;;;;;;3.47;0.60;;;19.40;88.00;;;;;;5110630;27;20043;-85
2021/10/25 10:50:19;;;;;;;2.45;0.70;;;19.40;87.60;;;;;;5107303;27;20456;-85
2021/10/25 10:52:58;;;;;;;1.88;0.90;;;19.50;87.70;;;;;;5106024;27;20176;-85
2021/10/25 10:55:32;;;;;;;1.02;0.60;;;19.50;87.70;;;;;;5104310;27;20039;-85
2021/10/25 11:00:36;;;;;;;4.30;0.80;;;19.50;87.40;;;;;;5107479;27;20193;-84
2021/10/25 11:03:15;;;;;;;2.00;0.80;;;19.60;87.70;;;;;;5102682;27;20040;-85
2021/10/25 11:05:45;;;;;;;2.60;0.88;;;19.70;87.90;;;;;;5105802;27;20161;-84
2021/10/25 11:08:16;;;;;;;3.58;0.80;;;19.80;87.70;;;;;;5107279;27;20043;-84
2021/10/25 11:10:48;;;;;;;2.25;0.50;;;19.80;87.10;;;;;;5098310;27;20047;-85
2021/10/25 11:13:21;;;;;;;2.17;0.63;;;19.90;87.20;;;;;;5109881;27;20039;-84
2021/10/25 11:15:54;;;;;;;3.00;0.73;;;19.80;87.40;;;;;;5089052;28;20040;-86
2021/10/25 11:18:30;;;;;;;2.17;0.70;;;19.80;87.30;;;;;;5090363;28;20074;-86
2021/10/25 11:21:09;;;;;;;3.05;0.70;;;19.70;87.60;;;;;;5109413;27;20162;-85
2021/10/25 11:23:40;;;;;;;2.45;1.10;;;19.70;86.90;;;;;;5107190;27;20070;-84
2021/10/25 11:26:15;;;;;;;1.63;0.75;;;19.80;88.10;;;;;;5090330;28;20051;-85
2021/10/25 11:29:03;;;;;;;2.17;1.00;;;19.80;87.80;;;;;;5083935;28;20070;-85
2021/10/25 11:31:34;;;;;;;1.75;0.60;;;20.00;88.60;;;;;;5111405;27;20276;-85
2021/10/25 11:34:08;;;;;;;3.35;0.82;;;20.10;87.20;;;;;;5086238;28;20040;-84
2021/10/25 11:36:48;;;;;;;2.83;0.50;;;20.10;86.80;;;;;;5106447;27;20053;-85
2021/10/25 11:39:27;;;;;;;1.55;0.73;;;20.10;87.10;;;;;;5106306;27;20051;-84
2021/10/25 11:41:56;;;;;;;2.17;0.90;;;20.20;87.70;;;;;;5104494;27;20600;-84
2021/10/25 11:44:26;;;;;;;2.95;1.25;;;20.20;87.80;;;;;;5090203;27;20069;-84
2021/10/25 11:46:55;;;;;;;2.20;0.90;;;20.40;88.90;;;;;;5109419;27;20051;-84
2021/10/25 11:49:24;;;;;;;2.03;0.70;;;20.50;86.90;;;;;;5105023;27;20054;-84
2021/10/25 11:51:55;;;;;;;2.28;1.08;;;20.50;86.90;;;;;;5106165;27;20396;-84
2021/10/25 11:54:24;;;;;;;3.13;0.73;;;20.70;88.00;;;;;;5090496;28;20147;-84
2021/10/25 11:57:00;;;;;;;3.83;1.30;;;20.70;86.90;;;;;;5107326;27;20043;-86
2021/10/25 11:59:30;;;;;;;2.42;0.85;;;20.80;88.10;;;;;;5085430;27;20482;-84
2021/10/25 12:02:09;;;;;;;1.77;0.70;;;20.90;87.60;;;;;;5088685;27;20233;-85
2021/10/25 12:04:44;;;;;;;2.95;0.70;;;21.00;87.50;;;;;;5097368;27;20047;-84
2021/10/25 12:07:13;;;;;;;2.55;0.50;;;21.10;87.00;;;;;;5102961;27;20043;-85
2021/10/25 12:09:41;;;;;;;2.33;0.80;;;21.30;86.70;;;;;;5108341;27;20066;-85
2021/10/25 12:12:16;;;;;;;3.50;1.20;;;21.30;86.60;;;;;;5106423;27;20089;-84
2021/10/25 12:14:47;;;;;;;2.35;0.93;;;21.10;86.40;;;;;;5104487;27;20094;-82
2021/10/25 12:17:19;;;;;;;2.63;0.95;;;21.10;86.70;;;;;;5100804;27;20439;-82
2021/10/25 12:19:47;;;;;;;2.83;0.90;;;21.10;87.50;;;;;;5094489;28;20051;-82
2021/10/25 12:22:18;;;;;;;2.03;0.70;;;21.20;87.70;;;;;;5103077;28;20047;-81
2021/10/25 12:24:48;;;;;;;2.90;0.90;;;21.20;86.90;;;;;;5086310;28;20054;-81
2021/10/25 12:27:17;;;;;;;2.20;0.63;;;21.20;87.60;;;;;;5106651;27;20289;-81
2021/10/25 12:29:58;;;;;;;1.65;0.60;;;21.30;87.40;;;;;;5087310;28;20050;-82
2021/10/25 12:32:26;;;;;;;3.47;1.13;;;21.20;87.40;;;;;;5084483;28;20036;-79
2021/10/25 12:34:56;;;;;;;2.95;0.75;;;21.10;88.80;;;;;;5091859;28;20143;-82
2021/10/25 12:37:26;;;;;;;1.83;0.60;;;21.00;89.00;;;;;;5102722;28;20036;-81
2021/10/25 12:39:56;;;;;;;7.82;5.20;;;21.10;89.90;;;;;;5104290;27;20046;-81
2021/10/25 12:42:27;;;;;;;10.10;5.28;;;21.20;89.50;;;;;;5107464;27;20063;-81
2021/10/25 12:44:56;;;;;;;5.35;2.80;;;21.20;88.40;;;;;;5107095;27;20096;-80
2021/10/25 12:47:25;;;;;;;3.60;1.85;;;21.30;89.40;;;;;;5106444;27;20040;-80
2021/10/25 12:49:56;;;;;;;3.10;1.58;;;21.40;87.90;;;;;;5108871;27;20065;-80
2021/10/25 12:52:28;;;;;;;3.42;1.23;;;21.40;86.80;;;;;;5106752;27;20039;-77
2021/10/25 12:55:00;;;;;;;6.03;1.90;;;21.30;87.30;;;;;;5101622;27;20126;-83
2021/10/25 12:57:32;;;;;;;2.00;1.00;;;21.40;87.40;;;;;;5104445;27;20043;-81
2021/10/25 13:00:07;;;;;;;3.20;1.73;;;21.50;87.20;;;;;;5111687;27;20139;-81
2021/10/25 13:02:42;;;;;;;3.50;1.38;;;21.60;87.30;;;;;;5105941;27;20043;-79
2021/10/25 13:05:15;;;;;;;3.15;1.08;;;21.50;87.60;;;;;;5105368;27;20056;-81
2021/10/25 13:07:49;;;;;;;1.80;0.90;;;21.60;87.70;;;;;;5107554;27;20138;-79
2021/10/25 13:10:18;;;;;;;2.33;1.08;;;21.50;88.00;;;;;;5086280;27;20044;-81
2021/10/25 13:12:47;;;;;;;2.30;0.82;;;21.40;87.10;;;;;;5111799;27;20386;-80
2021/10/25 13:15:18;;;;;;;1.85;1.02;;;21.30;86.20;;;;;;5112482;27;20545;-81
2021/10/25 13:17:46;;;;;;;3.50;1.05;;;21.30;87.40;;;;;;5106303;27;20071;-80
2021/10/25 13:20:21;;;;;;;1.38;0.85;;;21.30;87.70;;;;;;5108881;27;20039;-79
2021/10/25 13:22:49;;;;;;;2.95;1.02;;;21.40;88.20;;;;;;5103745;27;20092;-77
2021/10/25 13:25:19;;;;;;;2.72;0.90;;;21.30;90.00;;;;;;5105409;27;20240;-77
2021/10/25 13:27:49;;;;;;;4.13;0.80;;;21.30;90.20;;;;;;5090520;28;20375;-77
2021/10/25 13:30:21;;;;;;;2.47;0.80;;;21.20;88.80;;;;;;5104620;27;20071;-79
2021/10/25 13:32:50;;;;;;;2.58;1.17;;;21.10;89.50;;;;;;5092645;27;20397;-78
2021/10/25 13:35:18;;;;;;;3.17;0.82;;;21.10;88.80;;;;;;5104475;27;20371;-80
2021/10/25 13:37:57;;;;;;;2.45;0.75;;;21.00;90.00;;;;;;5104127;27;20048;-80
2021/10/25 13:40:29;;;;;;;2.90;1.15;;;21.10;90.00;;;;;;5105151;27;20047;-80
2021/10/25 13:43:01;;;;;;;4.70;0.80;;;21.10;88.70;;;;;;5082335;27;20557;-80
2021/10/25 13:45:30;;;;;;;3.40;1.10;;;21.10;89.10;;;;;;5088413;28;20509;-80
2021/10/25 13:47:59;;;;;;;2.65;0.90;;;21.10;90.50;;;;;;5106562;27;20523;-77
2021/10/25 13:50:28;;;;;;;4.38;0.70;;;21.00;91.50;;;;;;5108121;27;20040;-77
2021/10/25 13:52:56;;;;;;;2.45;0.63;;;21.00;92.00;;;;;;5089875;28;20088;-77
2021/10/25 13:55:25;;;;;;;2.30;1.00;;;21.10;93.20;;;;;;5108057;27;20044;-80
2021/10/25 13:57:54;;;;;;;2.97;1.00;;;21.00;93.50;;;;;;5104585;27;20051;-79
2021/10/25 14:00:22;;;;;;;4.55;0.98;;;21.10;91.30;;;;;;5101454;27;20058;-79
2021/10/25 14:02:55;;;;;;;2.22;0.80;;;21.10;91.90;;;;;;5101424;27;20040;-75
2021/10/25 14:05:24;;;;;;;5.80;1.05;;;21.10;91.00;;;;;;5118043;27;20130;-76
2021/10/25 14:07:54;;;;;;;2.38;0.80;;;21.00;90.70;;;;;;5108121;27;20119;-75
2021/10/25 14:10:36;;;;;;;1.58;0.88;;;21.00;92.00;;;;;;5109932;27;20491;-76
2021/10/25 14:13:14;;;;;;;1.77;0.80;;;21.00;91.70;;;;;;5106011;27;20036;-76
2021/10/25 14:15:46;;;;;;;3.17;1.00;;;21.00;91.80;;;;;;5103511;27;20421;-75
2021/10/25 14:18:18;;;;;;;2.92;0.90;;;21.00;92.30;;;;;;5103755;27;20516;-77
2021/10/25 14:20:47;;;;;;;5.00;1.00;;;20.90;91.50;;;;;;5098703;27;20455;-75
2021/10/25 14:23:16;;;;;;;4.63;1.20;;;21.00;93.20;;;;;;5099278;27;20039;-76
2021/10/25 14:25:44;;;;;;;2.45;1.10;;;21.10;92.80;;;;;;5105085;27;20559;-76
2021/10/25 14:28:13;;;;;;;6.63;1.35;;;21.10;91.80;;;;;;5103357;27;20124;-75
2021/10/25 14:30:42;;;;;;;4.18;0.95;;;20.90;93.60;;;;;;5106655;27;20035;-76
2021/10/25 14:33:12;;;;;;;3.97;1.38;;;20.90;93.60;;;;;;5105514;27;20508;-76
2021/10/25 14:35:42;;;;;;;2.38;1.33;;;20.90;92.00;;;;;;5101492;27;20046;-76
2021/10/25 14:38:17;;;;;;;5.90;1.30;;;20.60;92.40;;;;;;5102565;27;20092;-77
2021/10/25 14:41:03;;;;;;;3.50;0.85;;;20.60;93.30;;;;;;5103722;27;20036;-77
2021/10/25 14:43:40;;;;;;;2.97;1.10;;;20.50;93.20;;;;;;5109908;27;20790;-78
2021/10/25 14:46:14;;;;;;;3.63;1.05;;;20.40;93.10;;;;;;5104684;27;20054;-76
2021/10/25 14:48:55;;;;;;;2.00;0.90;;;20.40;93.00;;;;;;5105995;27;20035;-77
2021/10/25 14:54:20;;;;;;;2.97;0.98;;;20.20;94.90;;;;;;5099182;27;20058;-77
2021/10/25 14:56:49;;;;;;;3.63;0.90;;;20.20;93.40;;;;;;5104649;27;20322;-78
2021/10/25 14:59:17;;;;;;;2.72;1.08;;;20.10;94.50;;;;;;5108286;27;20031;-76